sensor_id;sensor_type;location;lat;lon;timestamp;P1;durP1;ratioP1;P2;durP2;ratioP2
12818;SDS011;6474;53.474;9.894;2023-03-13T00:01:09;3.60;;;1.70;;
12818;SDS011;6474;53.474;9.894;2023-03-13T00:03:41;4.27;;;1.47;;
12818;SDS011;6474;53.474;9.894;2023-03-13T00:06:10;1.43;;;1.07;;
12818;SDS011;6474;53.474;9.894;2023-03-13T00:08:38;2.37;;;1.57;;
12818;SDS011;6474;53.474;9.894;2023-03-13T00:11:08;13.20;;;1.37;;
12818;SDS011;6474;53.474;9.894;2023-03-13T00:13:37;1.37;;;0.90;;
12818;SDS011;6474;53.474;9.894;2023-03-13T00:16:06;5.83;;;1.27;;
12818;SDS011;6474;53.474;9.894;2023-03-13T00:18:35;2.63;;;1.23;;
12818;SDS011;6474;53.474;9.894;2023-03-13T00:21:06;1.93;;;1.53;;
12818;SDS011;6474;53.474;9.894;2023-03-13T00:23:36;5.27;;;1.83;;
12818;SDS011;6474;53.474;9.894;2023-03-13T00:26:05;11.10;;;1.57;;
12818;SDS011;6474;53.474;9.894;2023-03-13T00:28:35;3.17;;;1.50;;
12818;SDS011;6474;53.474;9.894;2023-03-13T00:31:05;1.40;;;1.23;;
12818;SDS011;6474;53.474;9.894;2023-03-13T00:33:34;1.73;;;1.50;;
12818;SDS011;6474;53.474;9.894;2023-03-13T00:36:04;6.57;;;1.40;;
12818;SDS011;6474;53.474;9.894;2023-03-13T00:38:35;4.60;;;1.43;;
12818;SDS011;6474;53.474;9.894;2023-03-13T00:41:04;1.33;;;1.33;;
12818;SDS011;6474;53.474;9.894;2023-03-13T00:43:33;0.83;;;0.83;;
12818;SDS011;6474;53.474;9.894;2023-03-13T00:46:02;3.60;;;1.30;;
12818;SDS011;6474;53.474;9.894;2023-03-13T00:48:30;4.97;;;1.73;;
12818;SDS011;6474;53.474;9.894;2023-03-13T00:50:59;4.73;;;1.67;;
12818;SDS011;6474;53.474;9.894;2023-03-13T00:53:29;2.00;;;1.00;;
12818;SDS011;6474;53.474;9.894;2023-03-13T00:55:57;6.97;;;2.33;;
12818;SDS011;6474;53.474;9.894;2023-03-13T00:58:27;1.77;;;1.37;;
12818;SDS011;6474;53.474;9.894;2023-03-13T01:00:56;4.80;;;0.77;;
12818;SDS011;6474;53.474;9.894;2023-03-13T01:03:31;5.47;;;1.40;;
12818;SDS011;6474;53.474;9.894;2023-03-13T01:06:00;2.00;;;1.90;;
12818;SDS011;6474;53.474;9.894;2023-03-13T01:08:31;8.73;;;1.70;;
12818;SDS011;6474;53.474;9.894;2023-03-13T01:10:59;1.70;;;1.60;;
12818;SDS011;6474;53.474;9.894;2023-03-13T01:13:28;10.17;;;2.10;;
12818;SDS011;6474;53.474;9.894;2023-03-13T01:16:00;1.40;;;1.40;;
12818;SDS011;6474;53.474;9.894;2023-03-13T01:18:29;4.30;;;1.53;;
12818;SDS011;6474;53.474;9.894;2023-03-13T01:20:57;4.40;;;1.33;;
12818;SDS011;6474;53.474;9.894;2023-03-13T01:23:25;2.73;;;1.47;;
12818;SDS011;6474;53.474;9.894;2023-03-13T01:25:55;2.50;;;1.40;;
12818;SDS011;6474;53.474;9.894;2023-03-13T01:28:24;1.80;;;1.40;;
12818;SDS011;6474;53.474;9.894;2023-03-13T01:30:52;4.57;;;1.57;;
12818;SDS011;6474;53.474;9.894;2023-03-13T01:33:21;5.23;;;1.53;;
12818;SDS011;6474;53.474;9.894;2023-03-13T01:35:49;1.00;;;1.00;;
12818;SDS011;6474;53.474;9.894;2023-03-13T01:38:17;1.13;;;1.13;;
12818;SDS011;6474;53.474;9.894;2023-03-13T01:40:46;1.17;;;1.17;;
12818;SDS011;6474;53.474;9.894;2023-03-13T01:43:17;3.40;;;1.63;;
12818;SDS011;6474;53.474;9.894;2023-03-13T01:45:53;4.00;;;1.40;;
12818;SDS011;6474;53.474;9.894;2023-03-13T01:48:35;6.93;;;2.20;;
12818;SDS011;6474;53.474;9.894;2023-03-13T01:51:07;1.63;;;1.53;;
12818;SDS011;6474;53.474;9.894;2023-03-13T01:53:38;3.37;;;2.63;;
12818;SDS011;6474;53.474;9.894;2023-03-13T01:56:11;4.80;;;2.33;;
12818;SDS011;6474;53.474;9.894;2023-03-13T01:58:45;3.10;;;1.73;;
12818;SDS011;6474;53.474;9.894;2023-03-13T02:01:15;1.90;;;1.57;;
12818;SDS011;6474;53.474;9.894;2023-03-13T02:03:44;0.87;;;0.87;;
12818;SDS011;6474;53.474;9.894;2023-03-13T02:06:14;6.73;;;1.40;;
12818;SDS011;6474;53.474;9.894;2023-03-13T02:08:44;6.17;;;2.23;;
12818;SDS011;6474;53.474;9.894;2023-03-13T02:11:18;2.87;;;1.53;;
12818;SDS011;6474;53.474;9.894;2023-03-13T02:13:54;1.53;;;1.43;;
12818;SDS011;6474;53.474;9.894;2023-03-13T02:16:23;3.93;;;2.30;;
12818;SDS011;6474;53.474;9.894;2023-03-13T02:18:52;2.00;;;1.03;;
12818;SDS011;6474;53.474;9.894;2023-03-13T02:21:30;2.00;;;1.80;;
12818;SDS011;6474;53.474;9.894;2023-03-13T02:24:08;1.13;;;1.13;;
12818;SDS011;6474;53.474;9.894;2023-03-13T02:26:47;3.23;;;1.00;;
12818;SDS011;6474;53.474;9.894;2023-03-13T02:29:15;0.60;;;0.60;;
12818;SDS011;6474;53.474;9.894;2023-03-13T02:31:45;1.20;;;0.80;;
12818;SDS011;6474;53.474;9.894;2023-03-13T02:34:13;6.33;;;1.03;;
12818;SDS011;6474;53.474;9.894;2023-03-13T02:36:45;1.27;;;1.17;;
12818;SDS011;6474;53.474;9.894;2023-03-13T02:39:14;0.80;;;0.80;;
12818;SDS011;6474;53.474;9.894;2023-03-13T02:41:48;4.07;;;1.03;;
12818;SDS011;6474;53.474;9.894;2023-03-13T02:44:17;0.77;;;0.77;;
12818;SDS011;6474;53.474;9.894;2023-03-13T02:46:46;8.60;;;1.10;;
12818;SDS011;6474;53.474;9.894;2023-03-13T02:49:22;3.77;;;1.00;;
12818;SDS011;6474;53.474;9.894;2023-03-13T02:51:51;3.33;;;1.43;;
12818;SDS011;6474;53.474;9.894;2023-03-13T02:54:21;5.83;;;0.93;;
12818;SDS011;6474;53.474;9.894;2023-03-13T02:56:54;0.93;;;0.93;;
12818;SDS011;6474;53.474;9.894;2023-03-13T02:59:25;3.80;;;0.80;;
12818;SDS011;6474;53.474;9.894;2023-03-13T03:01:53;4.03;;;1.30;;
12818;SDS011;6474;53.474;9.894;2023-03-13T03:04:22;5.23;;;1.60;;
12818;SDS011;6474;53.474;9.894;2023-03-13T03:06:51;12.47;;;2.73;;
12818;SDS011;6474;53.474;9.894;2023-03-13T03:09:20;7.40;;;1.43;;
12818;SDS011;6474;53.474;9.894;2023-03-13T03:11:49;3.13;;;0.80;;
12818;SDS011;6474;53.474;9.894;2023-03-13T03:14:19;0.93;;;0.93;;
12818;SDS011;6474;53.474;9.894;2023-03-13T03:16:47;2.43;;;0.60;;
12818;SDS011;6474;53.474;9.894;2023-03-13T03:19:15;6.43;;;1.10;;
12818;SDS011;6474;53.474;9.894;2023-03-13T03:21:43;4.13;;;1.90;;
12818;SDS011;6474;53.474;9.894;2023-03-13T03:24:11;0.70;;;0.70;;
12818;SDS011;6474;53.474;9.894;2023-03-13T03:26:39;0.93;;;0.93;;
12818;SDS011;6474;53.474;9.894;2023-03-13T03:29:06;1.70;;;0.90;;
12818;SDS011;6474;53.474;9.894;2023-03-13T03:31:37;3.90;;;0.90;;
12818;SDS011;6474;53.474;9.894;2023-03-13T03:34:05;0.93;;;0.93;;
12818;SDS011;6474;53.474;9.894;2023-03-13T03:36:33;0.40;;;0.40;;
12818;SDS011;6474;53.474;9.894;2023-03-13T03:39:01;1.70;;;1.10;;
12818;SDS011;6474;53.474;9.894;2023-03-13T03:41:30;0.77;;;0.77;;
12818;SDS011;6474;53.474;9.894;2023-03-13T03:43:58;1.50;;;1.27;;
12818;SDS011;6474;53.474;9.894;2023-03-13T03:46:26;2.30;;;1.57;;
12818;SDS011;6474;53.474;9.894;2023-03-13T03:48:56;1.57;;;0.57;;
12818;SDS011;6474;53.474;9.894;2023-03-13T03:51:23;2.13;;;0.80;;
12818;SDS011;6474;53.474;9.894;2023-03-13T03:53:51;4.47;;;1.80;;
12818;SDS011;6474;53.474;9.894;2023-03-13T03:56:20;5.23;;;1.13;;
12818;SDS011;6474;53.474;9.894;2023-03-13T03:58:48;3.10;;;0.93;;
12818;SDS011;6474;53.474;9.894;2023-03-13T04:01:16;0.90;;;0.90;;
12818;SDS011;6474;53.474;9.894;2023-03-13T04:03:44;1.27;;;1.27;;
12818;SDS011;6474;53.474;9.894;2023-03-13T04:06:15;4.07;;;1.47;;
12818;SDS011;6474;53.474;9.894;2023-03-13T04:08:42;6.50;;;1.20;;
12818;SDS011;6474;53.474;9.894;2023-03-13T04:11:11;3.43;;;1.60;;
12818;SDS011;6474;53.474;9.894;2023-03-13T04:13:39;1.10;;;1.10;;
12818;SDS011;6474;53.474;9.894;2023-03-13T04:16:07;0.83;;;0.83;;
12818;SDS011;6474;53.474;9.894;2023-03-13T04:18:36;1.03;;;0.97;;
12818;SDS011;6474;53.474;9.894;2023-03-13T04:21:04;0.80;;;0.80;;
12818;SDS011;6474;53.474;9.894;2023-03-13T04:23:34;2.07;;;1.50;;
12818;SDS011;6474;53.474;9.894;2023-03-13T04:26:02;2.03;;;1.27;;
12818;SDS011;6474;53.474;9.894;2023-03-13T04:28:31;1.73;;;0.90;;
12818;SDS011;6474;53.474;9.894;2023-03-13T04:30:58;1.43;;;1.43;;
12818;SDS011;6474;53.474;9.894;2023-03-13T04:33:26;1.13;;;1.03;;
12818;SDS011;6474;53.474;9.894;2023-03-13T04:35:55;7.00;;;1.97;;
12818;SDS011;6474;53.474;9.894;2023-03-13T04:38:23;4.10;;;1.23;;
12818;SDS011;6474;53.474;9.894;2023-03-13T04:40:53;2.83;;;0.87;;
12818;SDS011;6474;53.474;9.894;2023-03-13T04:43:21;0.73;;;0.73;;
12818;SDS011;6474;53.474;9.894;2023-03-13T04:45:50;2.63;;;1.37;;
12818;SDS011;6474;53.474;9.894;2023-03-13T04:48:19;0.70;;;0.70;;
12818;SDS011;6474;53.474;9.894;2023-03-13T04:50:47;2.10;;;0.90;;
12818;SDS011;6474;53.474;9.894;2023-03-13T04:53:16;0.73;;;0.73;;
12818;SDS011;6474;53.474;9.894;2023-03-13T04:55:44;1.27;;;0.70;;
12818;SDS011;6474;53.474;9.894;2023-03-13T04:58:14;2.23;;;1.63;;
12818;SDS011;6474;53.474;9.894;2023-03-13T05:00:42;6.13;;;1.23;;
12818;SDS011;6474;53.474;9.894;2023-03-13T05:03:10;1.10;;;1.03;;
12818;SDS011;6474;53.474;9.894;2023-03-13T05:05:38;0.70;;;0.70;;
12818;SDS011;6474;53.474;9.894;2023-03-13T05:08:06;1.40;;;0.63;;
12818;SDS011;6474;53.474;9.894;2023-03-13T05:10:36;0.60;;;0.60;;
12818;SDS011;6474;53.474;9.894;2023-03-13T05:13:03;4.53;;;1.30;;
12818;SDS011;6474;53.474;9.894;2023-03-13T05:15:33;1.60;;;1.60;;
12818;SDS011;6474;53.474;9.894;2023-03-13T05:18:01;0.87;;;0.87;;
12818;SDS011;6474;53.474;9.894;2023-03-13T05:20:28;2.20;;;1.10;;
12818;SDS011;6474;53.474;9.894;2023-03-13T05:22:56;0.60;;;0.60;;
12818;SDS011;6474;53.474;9.894;2023-03-13T05:25:24;2.17;;;0.90;;
12818;SDS011;6474;53.474;9.894;2023-03-13T05:27:52;1.37;;;0.70;;
12818;SDS011;6474;53.474;9.894;2023-03-13T05:30:20;0.60;;;0.60;;
12818;SDS011;6474;53.474;9.894;2023-03-13T05:32:49;1.03;;;0.63;;
12818;SDS011;6474;53.474;9.894;2023-03-13T05:35:17;1.00;;;1.00;;
12818;SDS011;6474;53.474;9.894;2023-03-13T05:37:46;1.00;;;1.00;;
12818;SDS011;6474;53.474;9.894;2023-03-13T05:40:14;1.03;;;0.90;;
12818;SDS011;6474;53.474;9.894;2023-03-13T05:42:42;0.87;;;0.80;;
12818;SDS011;6474;53.474;9.894;2023-03-13T05:45:10;0.60;;;0.60;;
12818;SDS011;6474;53.474;9.894;2023-03-13T05:47:39;0.60;;;0.60;;
12818;SDS011;6474;53.474;9.894;2023-03-13T05:50:09;0.40;;;0.33;;
12818;SDS011;6474;53.474;9.894;2023-03-13T05:52:37;0.43;;;0.43;;
12818;SDS011;6474;53.474;9.894;2023-03-13T05:55:05;3.23;;;0.50;;
12818;SDS011;6474;53.474;9.894;2023-03-13T05:57:33;3.23;;;0.60;;
12818;SDS011;6474;53.474;9.894;2023-03-13T06:00:01;0.20;;;0.20;;
12818;SDS011;6474;53.474;9.894;2023-03-13T06:02:29;0.40;;;0.40;;
12818;SDS011;6474;53.474;9.894;2023-03-13T06:04:57;0.40;;;0.40;;
12818;SDS011;6474;53.474;9.894;2023-03-13T06:07:27;0.50;;;0.50;;
12818;SDS011;6474;53.474;9.894;2023-03-13T06:09:54;0.40;;;0.40;;
12818;SDS011;6474;53.474;9.894;2023-03-13T06:12:22;0.40;;;0.40;;
12818;SDS011;6474;53.474;9.894;2023-03-13T06:14:50;4.80;;;0.60;;
12818;SDS011;6474;53.474;9.894;2023-03-13T06:17:18;2.53;;;0.40;;
12818;SDS011;6474;53.474;9.894;2023-03-13T06:19:46;0.40;;;0.40;;
12818;SDS011;6474;53.474;9.894;2023-03-13T06:22:15;1.07;;;0.80;;
12818;SDS011;6474;53.474;9.894;2023-03-13T06:24:44;0.43;;;0.43;;
12818;SDS011;6474;53.474;9.894;2023-03-13T06:27:14;0.10;;;0.10;;
12818;SDS011;6474;53.474;9.894;2023-03-13T06:29:42;0.60;;;0.60;;
12818;SDS011;6474;53.474;9.894;2023-03-13T06:32:10;0.30;;;0.30;;
12818;SDS011;6474;53.474;9.894;2023-03-13T06:34:38;0.20;;;0.20;;
12818;SDS011;6474;53.474;9.894;2023-03-13T06:37:06;0.50;;;0.50;;
12818;SDS011;6474;53.474;9.894;2023-03-13T06:39:34;0.20;;;0.20;;
12818;SDS011;6474;53.474;9.894;2023-03-13T06:42:04;0.73;;;0.73;;
12818;SDS011;6474;53.474;9.894;2023-03-13T06:44:32;0.40;;;0.40;;
12818;SDS011;6474;53.474;9.894;2023-03-13T06:47:00;1.33;;;0.20;;
12818;SDS011;6474;53.474;9.894;2023-03-13T06:49:28;1.73;;;0.67;;
12818;SDS011;6474;53.474;9.894;2023-03-13T06:51:56;0.20;;;0.20;;
12818;SDS011;6474;53.474;9.894;2023-03-13T06:54:24;0.17;;;0.17;;
12818;SDS011;6474;53.474;9.894;2023-03-13T06:56:53;0.27;;;0.27;;
12818;SDS011;6474;53.474;9.894;2023-03-13T06:59:22;0.23;;;0.23;;
12818;SDS011;6474;53.474;9.894;2023-03-13T07:01:50;4.60;;;0.43;;
12818;SDS011;6474;53.474;9.894;2023-03-13T07:04:18;0.40;;;0.40;;
12818;SDS011;6474;53.474;9.894;2023-03-13T07:06:46;0.50;;;0.50;;
12818;SDS011;6474;53.474;9.894;2023-03-13T07:09:14;0.60;;;0.60;;
12818;SDS011;6474;53.474;9.894;2023-03-13T07:11:45;0.67;;;0.67;;
12818;SDS011;6474;53.474;9.894;2023-03-13T07:14:14;0.30;;;0.30;;
12818;SDS011;6474;53.474;9.894;2023-03-13T07:16:44;0.30;;;0.30;;
12818;SDS011;6474;53.474;9.894;2023-03-13T07:19:13;0.37;;;0.37;;
12818;SDS011;6474;53.474;9.894;2023-03-13T07:21:41;0.37;;;0.37;;
12818;SDS011;6474;53.474;9.894;2023-03-13T07:24:10;0.30;;;0.30;;
12818;SDS011;6474;53.474;9.894;2023-03-13T07:26:38;0.30;;;0.30;;
12818;SDS011;6474;53.474;9.894;2023-03-13T07:29:19;0.80;;;0.80;;
12818;SDS011;6474;53.474;9.894;2023-03-13T07:31:48;0.70;;;0.60;;
12818;SDS011;6474;53.474;9.894;2023-03-13T07:34:17;0.50;;;0.50;;
12818;SDS011;6474;53.474;9.894;2023-03-13T07:36:45;0.50;;;0.50;;
12818;SDS011;6474;53.474;9.894;2023-03-13T07:39:13;0.70;;;0.70;;
12818;SDS011;6474;53.474;9.894;2023-03-13T07:41:40;1.20;;;0.60;;
12818;SDS011;6474;53.474;9.894;2023-03-13T07:44:08;0.30;;;0.30;;
12818;SDS011;6474;53.474;9.894;2023-03-13T07:46:37;0.50;;;0.50;;
12818;SDS011;6474;53.474;9.894;2023-03-13T07:49:06;1.17;;;1.17;;
12818;SDS011;6474;53.474;9.894;2023-03-13T07:51:34;0.50;;;0.50;;
12818;SDS011;6474;53.474;9.894;2023-03-13T07:54:09;0.50;;;0.50;;
12818;SDS011;6474;53.474;9.894;2023-03-13T07:56:37;0.50;;;0.50;;
12818;SDS011;6474;53.474;9.894;2023-03-13T07:59:06;0.67;;;0.67;;
12818;SDS011;6474;53.474;9.894;2023-03-13T08:01:34;0.93;;;0.93;;
12818;SDS011;6474;53.474;9.894;2023-03-13T08:04:03;0.40;;;0.40;;
12818;SDS011;6474;53.474;9.894;2023-03-13T08:06:32;0.70;;;0.70;;
12818;SDS011;6474;53.474;9.894;2023-03-13T08:09:02;0.40;;;0.40;;
12818;SDS011;6474;53.474;9.894;2023-03-13T08:11:30;0.70;;;0.70;;
12818;SDS011;6474;53.474;9.894;2023-03-13T08:13:58;0.70;;;0.70;;
12818;SDS011;6474;53.474;9.894;2023-03-13T08:16:28;0.60;;;0.50;;
12818;SDS011;6474;53.474;9.894;2023-03-13T08:18:57;0.60;;;0.60;;
12818;SDS011;6474;53.474;9.894;2023-03-13T08:21:27;1.00;;;1.00;;
12818;SDS011;6474;53.474;9.894;2023-03-13T08:23:58;0.70;;;0.70;;
12818;SDS011;6474;53.474;9.894;2023-03-13T08:26:29;0.60;;;0.60;;
12818;SDS011;6474;53.474;9.894;2023-03-13T08:28:58;2.27;;;1.03;;
12818;SDS011;6474;53.474;9.894;2023-03-13T08:31:28;0.50;;;0.50;;
12818;SDS011;6474;53.474;9.894;2023-03-13T08:33:57;1.07;;;1.07;;
12818;SDS011;6474;53.474;9.894;2023-03-13T08:36:26;1.27;;;1.27;;
12818;SDS011;6474;53.474;9.894;2023-03-13T08:38:58;0.60;;;0.60;;
12818;SDS011;6474;53.474;9.894;2023-03-13T08:41:28;1.00;;;1.00;;
12818;SDS011;6474;53.474;9.894;2023-03-13T08:43:59;1.20;;;1.10;;
12818;SDS011;6474;53.474;9.894;2023-03-13T08:46:27;1.47;;;1.00;;
12818;SDS011;6474;53.474;9.894;2023-03-13T08:48:56;0.93;;;0.90;;
12818;SDS011;6474;53.474;9.894;2023-03-13T08:51:25;0.93;;;0.93;;
12818;SDS011;6474;53.474;9.894;2023-03-13T08:53:54;0.90;;;0.90;;
12818;SDS011;6474;53.474;9.894;2023-03-13T08:56:24;1.33;;;1.33;;
12818;SDS011;6474;53.474;9.894;2023-03-13T08:58:56;1.03;;;1.03;;
12818;SDS011;6474;53.474;9.894;2023-03-13T09:01:26;0.90;;;0.90;;
12818;SDS011;6474;53.474;9.894;2023-03-13T09:03:55;1.90;;;1.80;;
12818;SDS011;6474;53.474;9.894;2023-03-13T09:06:29;1.20;;;1.20;;
12818;SDS011;6474;53.474;9.894;2023-03-13T09:08:57;0.90;;;0.90;;
12818;SDS011;6474;53.474;9.894;2023-03-13T09:11:27;1.07;;;1.07;;
12818;SDS011;6474;53.474;9.894;2023-03-13T09:13:55;0.67;;;0.67;;
12818;SDS011;6474;53.474;9.894;2023-03-13T09:16:25;1.10;;;1.10;;
12818;SDS011;6474;53.474;9.894;2023-03-13T09:18:54;1.20;;;1.20;;
12818;SDS011;6474;53.474;9.894;2023-03-13T09:21:24;0.93;;;0.67;;
12818;SDS011;6474;53.474;9.894;2023-03-13T09:23:54;1.57;;;1.57;;
12818;SDS011;6474;53.474;9.894;2023-03-13T09:26:22;1.23;;;1.20;;
12818;SDS011;6474;53.474;9.894;2023-03-13T09:28:52;1.27;;;1.27;;
12818;SDS011;6474;53.474;9.894;2023-03-13T09:31:21;1.07;;;1.07;;
12818;SDS011;6474;53.474;9.894;2023-03-13T09:33:50;1.23;;;1.23;;
12818;SDS011;6474;53.474;9.894;2023-03-13T09:36:19;1.30;;;1.30;;
12818;SDS011;6474;53.474;9.894;2023-03-13T09:38:49;1.20;;;1.20;;
12818;SDS011;6474;53.474;9.894;2023-03-13T09:41:25;1.03;;;1.03;;
12818;SDS011;6474;53.474;9.894;2023-03-13T09:43:59;1.40;;;1.40;;
12818;SDS011;6474;53.474;9.894;2023-03-13T09:46:32;1.20;;;1.20;;
12818;SDS011;6474;53.474;9.894;2023-03-13T09:49:08;1.00;;;1.00;;
12818;SDS011;6474;53.474;9.894;2023-03-13T09:51:44;1.60;;;1.50;;
12818;SDS011;6474;53.474;9.894;2023-03-13T09:54:20;1.30;;;1.30;;
12818;SDS011;6474;53.474;9.894;2023-03-13T09:56:52;1.23;;;1.23;;
12818;SDS011;6474;53.474;9.894;2023-03-13T09:59:26;1.37;;;1.37;;
12818;SDS011;6474;53.474;9.894;2023-03-13T10:01:59;1.30;;;1.30;;
12818;SDS011;6474;53.474;9.894;2023-03-13T10:04:31;1.37;;;1.30;;
12818;SDS011;6474;53.474;9.894;2023-03-13T10:07:09;1.80;;;1.70;;
12818;SDS011;6474;53.474;9.894;2023-03-13T10:09:37;1.30;;;1.30;;
12818;SDS011;6474;53.474;9.894;2023-03-13T10:12:09;1.30;;;1.30;;
12818;SDS011;6474;53.474;9.894;2023-03-13T10:14:43;0.73;;;0.73;;
12818;SDS011;6474;53.474;9.894;2023-03-13T10:17:25;1.23;;;1.20;;
12818;SDS011;6474;53.474;9.894;2023-03-13T10:19:59;1.03;;;1.03;;
12818;SDS011;6474;53.474;9.894;2023-03-13T10:22:33;1.20;;;1.20;;
12818;SDS011;6474;53.474;9.894;2023-03-13T10:25:03;1.17;;;1.17;;
12818;SDS011;6474;53.474;9.894;2023-03-13T10:27:42;1.10;;;1.10;;
12818;SDS011;6474;53.474;9.894;2023-03-13T10:30:18;1.47;;;1.37;;
12818;SDS011;6474;53.474;9.894;2023-03-13T10:32:49;1.10;;;1.10;;
12818;SDS011;6474;53.474;9.894;2023-03-13T10:35:21;0.90;;;0.90;;
12818;SDS011;6474;53.474;9.894;2023-03-13T10:37:49;1.70;;;1.17;;
12818;SDS011;6474;53.474;9.894;2023-03-13T10:40:28;1.13;;;1.10;;
12818;SDS011;6474;53.474;9.894;2023-03-13T10:42:59;0.87;;;0.87;;
12818;SDS011;6474;53.474;9.894;2023-03-13T10:45:31;2.93;;;1.00;;
12818;SDS011;6474;53.474;9.894;2023-03-13T10:48:02;1.13;;;1.13;;
12818;SDS011;6474;53.474;9.894;2023-03-13T10:50:40;1.73;;;1.20;;
12818;SDS011;6474;53.474;9.894;2023-03-13T10:53:21;1.10;;;1.10;;
12818;SDS011;6474;53.474;9.894;2023-03-13T10:55:51;0.90;;;0.90;;
12818;SDS011;6474;53.474;9.894;2023-03-13T10:58:22;1.63;;;1.50;;
12818;SDS011;6474;53.474;9.894;2023-03-13T11:01:09;1.27;;;1.17;;
12818;SDS011;6474;53.474;9.894;2023-03-13T11:03:43;1.20;;;1.10;;
12818;SDS011;6474;53.474;9.894;2023-03-13T11:06:23;1.00;;;1.00;;
12818;SDS011;6474;53.474;9.894;2023-03-13T11:09:04;1.20;;;1.17;;
12818;SDS011;6474;53.474;9.894;2023-03-13T11:11:43;1.00;;;1.00;;
12818;SDS011;6474;53.474;9.894;2023-03-13T11:14:14;1.27;;;1.27;;
12818;SDS011;6474;53.474;9.894;2023-03-13T11:16:48;2.53;;;1.13;;
12818;SDS011;6474;53.474;9.894;2023-03-13T11:19:21;1.33;;;1.30;;
12818;SDS011;6474;53.474;9.894;2023-03-13T11:21:59;0.80;;;0.80;;
12818;SDS011;6474;53.474;9.894;2023-03-13T11:24:48;0.67;;;0.67;;
12818;SDS011;6474;53.474;9.894;2023-03-13T11:27:23;0.63;;;0.63;;
12818;SDS011;6474;53.474;9.894;2023-03-13T11:29:59;0.60;;;0.60;;
12818;SDS011;6474;53.474;9.894;2023-03-13T11:32:46;1.10;;;1.10;;
12818;SDS011;6474;53.474;9.894;2023-03-13T11:35:26;0.93;;;0.93;;
12818;SDS011;6474;53.474;9.894;2023-03-13T11:38:07;1.33;;;1.23;;
12818;SDS011;6474;53.474;9.894;2023-03-13T11:40:40;1.20;;;0.90;;
12818;SDS011;6474;53.474;9.894;2023-03-13T11:43:17;0.60;;;0.60;;
12818;SDS011;6474;53.474;9.894;2023-03-13T11:46:00;0.93;;;0.93;;
12818;SDS011;6474;53.474;9.894;2023-03-13T11:48:40;0.50;;;0.50;;
12818;SDS011;6474;53.474;9.894;2023-03-13T11:51:28;1.13;;;1.13;;
12818;SDS011;6474;53.474;9.894;2023-03-13T11:54:17;0.93;;;0.93;;
12818;SDS011;6474;53.474;9.894;2023-03-13T11:56:58;0.87;;;0.87;;
12818;SDS011;6474;53.474;9.894;2023-03-13T11:59:34;1.10;;;1.10;;
12818;SDS011;6474;53.474;9.894;2023-03-13T12:02:14;1.23;;;1.20;;
12818;SDS011;6474;53.474;9.894;2023-03-13T12:04:51;0.80;;;0.80;;
12818;SDS011;6474;53.474;9.894;2023-03-13T12:07:25;0.90;;;0.90;;
12818;SDS011;6474;53.474;9.894;2023-03-13T12:09:58;5.13;;;0.90;;
12818;SDS011;6474;53.474;9.894;2023-03-13T12:12:32;0.60;;;0.60;;
12818;SDS011;6474;53.474;9.894;2023-03-13T12:15:08;1.00;;;1.00;;
12818;SDS011;6474;53.474;9.894;2023-03-13T12:17:45;0.53;;;0.53;;
12818;SDS011;6474;53.474;9.894;2023-03-13T12:20:22;0.60;;;0.60;;
12818;SDS011;6474;53.474;9.894;2023-03-13T12:22:54;0.70;;;0.70;;
12818;SDS011;6474;53.474;9.894;2023-03-13T12:25:31;0.73;;;0.73;;
12818;SDS011;6474;53.474;9.894;2023-03-13T12:28:08;2.37;;;2.27;;
12818;SDS011;6474;53.474;9.894;2023-03-13T12:30:51;0.90;;;0.90;;
12818;SDS011;6474;53.474;9.894;2023-03-13T12:33:28;2.20;;;0.63;;
12818;SDS011;6474;53.474;9.894;2023-03-13T12:36:04;0.63;;;0.63;;
12818;SDS011;6474;53.474;9.894;2023-03-13T12:38:39;0.70;;;0.70;;
12818;SDS011;6474;53.474;9.894;2023-03-13T12:41:14;1.40;;;0.93;;
12818;SDS011;6474;53.474;9.894;2023-03-13T12:43:46;0.60;;;0.60;;
12818;SDS011;6474;53.474;9.894;2023-03-13T12:49:37;0.87;;;0.70;;
12818;SDS011;6474;53.474;9.894;2023-03-13T12:52:36;0.73;;;0.73;;
12818;SDS011;6474;53.474;9.894;2023-03-13T12:55:50;0.60;;;0.60;;
12818;SDS011;6474;53.474;9.894;2023-03-13T12:58:26;0.70;;;0.70;;
12818;SDS011;6474;53.474;9.894;2023-03-13T13:01:00;0.87;;;0.87;;
12818;SDS011;6474;53.474;9.894;2023-03-13T13:03:31;0.63;;;0.63;;
12818;SDS011;6474;53.474;9.894;2023-03-13T13:06:04;1.53;;;0.70;;
12818;SDS011;6474;53.474;9.894;2023-03-13T13:08:37;0.57;;;0.57;;
12818;SDS011;6474;53.474;9.894;2023-03-13T13:17:15;0.60;;;0.60;;
12818;SDS011;6474;53.474;9.894;2023-03-13T13:19:49;0.60;;;0.60;;
12818;SDS011;6474;53.474;9.894;2023-03-13T13:28:18;0.80;;;0.80;;
12818;SDS011;6474;53.474;9.894;2023-03-13T13:30:58;0.33;;;0.33;;
12818;SDS011;6474;53.474;9.894;2023-03-13T13:33:33;0.57;;;0.57;;
12818;SDS011;6474;53.474;9.894;2023-03-13T13:36:26;1.60;;;0.50;;
12818;SDS011;6474;53.474;9.894;2023-03-13T13:39:20;3.50;;;0.90;;
12818;SDS011;6474;53.474;9.894;2023-03-13T13:45:19;0.70;;;0.70;;
12818;SDS011;6474;53.474;9.894;2023-03-13T13:53:49;1.30;;;0.60;;
12818;SDS011;6474;53.474;9.894;2023-03-13T13:56:32;0.63;;;0.60;;
12818;SDS011;6474;53.474;9.894;2023-03-13T13:59:05;1.50;;;1.13;;
12818;SDS011;6474;53.474;9.894;2023-03-13T14:02:08;2.40;;;1.00;;
12818;SDS011;6474;53.474;9.894;2023-03-13T14:04:48;0.50;;;0.50;;
12818;SDS011;6474;53.474;9.894;2023-03-13T14:07:27;0.30;;;0.30;;
12818;SDS011;6474;53.474;9.894;2023-03-13T14:10:03;0.70;;;0.70;;
12818;SDS011;6474;53.474;9.894;2023-03-13T14:12:35;0.70;;;0.70;;
12818;SDS011;6474;53.474;9.894;2023-03-13T14:15:07;0.87;;;0.87;;
12818;SDS011;6474;53.474;9.894;2023-03-13T14:17:40;0.97;;;0.60;;
12818;SDS011;6474;53.474;9.894;2023-03-13T14:20:17;0.50;;;0.50;;
12818;SDS011;6474;53.474;9.894;2023-03-13T14:23:05;0.87;;;0.87;;
12818;SDS011;6474;53.474;9.894;2023-03-13T14:25:42;0.90;;;0.90;;
12818;SDS011;6474;53.474;9.894;2023-03-13T14:28:18;1.13;;;0.73;;
12818;SDS011;6474;53.474;9.894;2023-03-13T14:30:48;0.50;;;0.50;;
12818;SDS011;6474;53.474;9.894;2023-03-13T14:33:18;0.60;;;0.60;;
12818;SDS011;6474;53.474;9.894;2023-03-13T14:35:46;0.80;;;0.80;;
12818;SDS011;6474;53.474;9.894;2023-03-13T14:38:16;0.90;;;0.90;;
12818;SDS011;6474;53.474;9.894;2023-03-13T14:40:45;0.60;;;0.60;;
12818;SDS011;6474;53.474;9.894;2023-03-13T14:43:16;0.73;;;0.73;;
12818;SDS011;6474;53.474;9.894;2023-03-13T14:45:53;0.70;;;0.70;;
12818;SDS011;6474;53.474;9.894;2023-03-13T14:48:21;0.43;;;0.43;;
12818;SDS011;6474;53.474;9.894;2023-03-13T14:50:53;0.50;;;0.50;;
12818;SDS011;6474;53.474;9.894;2023-03-13T14:53:40;3.50;;;0.73;;
12818;SDS011;6474;53.474;9.894;2023-03-13T14:56:20;0.77;;;0.77;;
12818;SDS011;6474;53.474;9.894;2023-03-13T14:59:04;0.67;;;0.67;;
12818;SDS011;6474;53.474;9.894;2023-03-13T15:01:35;0.57;;;0.57;;
12818;SDS011;6474;53.474;9.894;2023-03-13T15:04:03;1.50;;;0.80;;
12818;SDS011;6474;53.474;9.894;2023-03-13T15:06:31;0.37;;;0.37;;
12818;SDS011;6474;53.474;9.894;2023-03-13T15:09:13;0.80;;;0.80;;
12818;SDS011;6474;53.474;9.894;2023-03-13T15:11:51;0.60;;;0.60;;
12818;SDS011;6474;53.474;9.894;2023-03-13T15:14:31;0.70;;;0.70;;
12818;SDS011;6474;53.474;9.894;2023-03-13T15:17:10;0.57;;;0.57;;
12818;SDS011;6474;53.474;9.894;2023-03-13T15:19:41;0.90;;;0.90;;
12818;SDS011;6474;53.474;9.894;2023-03-13T15:22:10;0.70;;;0.70;;
12818;SDS011;6474;53.474;9.894;2023-03-13T15:24:39;1.00;;;0.90;;
12818;SDS011;6474;53.474;9.894;2023-03-13T15:27:13;0.50;;;0.50;;
12818;SDS011;6474;53.474;9.894;2023-03-13T15:29:43;0.70;;;0.70;;
12818;SDS011;6474;53.474;9.894;2023-03-13T15:32:15;1.23;;;0.77;;
12818;SDS011;6474;53.474;9.894;2023-03-13T15:34:53;0.50;;;0.50;;
12818;SDS011;6474;53.474;9.894;2023-03-13T15:37:23;0.70;;;0.70;;
12818;SDS011;6474;53.474;9.894;2023-03-13T15:39:52;0.80;;;0.80;;
12818;SDS011;6474;53.474;9.894;2023-03-13T15:42:21;0.60;;;0.60;;
12818;SDS011;6474;53.474;9.894;2023-03-13T15:44:49;2.85;;;0.45;;
12818;SDS011;6474;53.474;9.894;2023-03-13T15:47:20;0.57;;;0.57;;
12818;SDS011;6474;53.474;9.894;2023-03-13T15:49:48;0.50;;;0.40;;
12818;SDS011;6474;53.474;9.894;2023-03-13T15:52:17;0.40;;;0.40;;